Time;durP1;ratioP1;P1;durP2;ratioP2;P2;SDS_P1;SDS_P2;PMS_P1;PMS_P2;Temp;Humidity;BMP_temperature;BMP_pressure;BME280_temperature;BME280_humidity;BME280_pressure;Samples;Min_cycle;Max_cycle;Signal;HPM_P1;HPM_P2
2022/07/17 00:02:13;;;;;;;6.57;1.90;;;;;;;;;;5054741;28;20721;-76
2022/07/17 00:04:39;;;;;;;4.07;1.70;;;;;;;;;;5055554;28;20492;-75
2022/07/17 00:07:05;;;;;;;4.23;1.40;;;;;;;;;;5055974;28;20491;-75
2022/07/17 00:09:31;;;;;;;4.03;1.90;;;;;;;;;;5055583;28;20411;-78
2022/07/17 00:11:57;;;;;;;4.67;1.67;;;;;;;;;;5055974;28;20393;-75
2022/07/17 00:14:24;;;;;;;3.10;1.87;;;;;;;;;;5055302;28;20415;-78
2022/07/17 00:16:51;;;;;;;3.40;1.63;;;;;;;;;;5055792;28;20852;-78
2022/07/17 00:19:17;;;;;;;3.00;1.90;;;;;;;;;;5055607;28;20733;-78
2022/07/17 00:21:43;;;;;;;6.23;1.57;;;;;;;;;;5055711;28;20386;-77
2022/07/17 00:24:10;;;;;;;2.87;1.60;;;;;;;;;;5055261;28;20475;-78
2022/07/17 00:26:36;;;;;;;3.03;1.87;;;;;;;;;;5055475;28;20442;-77
2022/07/17 00:29:03;;;;;;;8.87;1.90;;;;;;;;;;5055442;28;20408;-78
2022/07/17 00:31:29;;;;;;;3.30;1.73;;;;;;;;;;5055408;28;20460;-77
2022/07/17 00:33:55;;;;;;;4.97;1.73;;;;;;;;;;5055123;28;20476;-77
2022/07/17 00:36:21;;;;;;;2.43;1.63;;;;;;;;;;5055568;28;20423;-78
2022/07/17 00:38:47;;;;;;;4.97;2.03;;;;;;;;;;5055422;28;20417;-77
2022/07/17 00:41:14;;;;;;;8.80;2.93;;;;;;;;;;5055361;28;20876;-77
2022/07/17 00:43:40;;;;;;;3.37;1.83;;;;;;;;;;5054260;28;20439;-77
2022/07/17 00:46:06;;;;;;;4.40;2.07;;;;;;;;;;5054472;28;20421;-77
2022/07/17 00:48:33;;;;;;;3.13;1.80;;;;;;;;;;5055105;28;20419;-77
2022/07/17 00:50:59;;;;;;;3.93;1.90;;;;;;;;;;5055107;28;20379;-77
2022/07/17 00:53:25;;;;;;;5.37;2.00;;;;;;;;;;5054318;28;20432;-77
2022/07/17 00:55:51;;;;;;;4.10;1.67;;;;;;;;;;5055184;28;20401;-77
2022/07/17 00:58:24;;;;;;;6.13;2.03;;;;;;;;;;5054910;28;20703;-77
2022/07/17 01:00:50;;;;;;;5.67;2.20;;;;;;;;;;5054876;28;20478;-77
2022/07/17 01:03:17;;;;;;;5.40;1.40;;;;;;;;;;5054524;28;20428;-77
2022/07/17 01:05:43;;;;;;;4.40;2.60;;;;;;;;;;5055151;28;20460;-78
2022/07/17 01:08:09;;;;;;;7.10;2.23;;;;;;;;;;5056480;28;20488;-77
2022/07/17 01:10:35;;;;;;;5.10;2.30;;;;;;;;;;5054569;28;20436;-77
2022/07/17 01:13:01;;;;;;;4.60;2.20;;;;;;;;;;5054215;28;21031;-77
2022/07/17 01:15:27;;;;;;;3.50;1.90;;;;;;;;;;5053069;28;20428;-77
2022/07/17 01:17:53;;;;;;;2.67;1.80;;;;;;;;;;5054997;28;20929;-77
2022/07/17 01:20:19;;;;;;;2.43;1.97;;;;;;;;;;5054589;28;20486;-77
2022/07/17 01:22:47;;;;;;;3.20;2.10;;;;;;;;;;5054139;28;20451;-77
2022/07/17 01:25:13;;;;;;;5.97;2.50;;;;;;;;;;5054324;28;20470;-77
2022/07/17 01:27:39;;;;;;;7.00;2.53;;;;;;;;;;5053015;28;20404;-77
2022/07/17 01:30:06;;;;;;;2.17;1.43;;;;;;;;;;5054373;28;20544;-77
2022/07/17 01:32:33;;;;;;;4.40;1.90;;;;;;;;;;5053915;28;20855;-77
2022/07/17 01:35:00;;;;;;;2.77;2.10;;;;;;;;;;5054460;28;20420;-78
2022/07/17 01:37:25;;;;;;;4.20;1.90;;;;;;;;;;5054335;28;20441;-77
2022/07/17 01:39:54;;;;;;;5.10;2.30;;;;;;;;;;5054064;28;20810;-78
2022/07/17 01:42:21;;;;;;;4.10;1.80;;;;;;;;;;5052512;28;20430;-78
2022/07/17 01:44:48;;;;;;;2.77;2.50;;;;;;;;;;5054197;28;20458;-77
2022/07/17 01:47:17;;;;;;;4.30;2.43;;;;;;;;;;5054213;28;20410;-78
2022/07/17 01:49:53;;;;;;;3.30;1.90;;;;;;;;;;5054065;28;20397;-78
2022/07/17 01:52:19;;;;;;;7.60;1.87;;;;;;;;;;5053762;28;20411;-78
2022/07/17 01:54:45;;;;;;;4.20;2.40;;;;;;;;;;5053940;28;20412;-77
2022/07/17 01:57:12;;;;;;;5.30;2.30;;;;;;;;;;5053728;28;20762;-77
2022/07/17 01:59:38;;;;;;;2.63;2.10;;;;;;;;;;5053800;28;20411;-77
2022/07/17 02:02:05;;;;;;;5.40;2.20;;;;;;;;;;5053618;28;20440;-77
2022/07/17 02:04:32;;;;;;;2.53;2.20;;;;;;;;;;5053539;28;20460;-77
2022/07/17 02:06:58;;;;;;;5.77;2.43;;;;;;;;;;5053623;28;20416;-77
2022/07/17 02:09:24;;;;;;;8.57;2.00;;;;;;;;;;5053472;28;20474;-77
2022/07/17 02:11:50;;;;;;;4.67;2.50;;;;;;;;;;5053643;28;20418;-77
2022/07/17 02:14:16;;;;;;;4.27;2.17;;;;;;;;;;5051854;28;20908;-76
2022/07/17 02:16:42;;;;;;;4.33;2.00;;;;;;;;;;5053442;28;20481;-77
2022/07/17 02:19:08;;;;;;;6.57;2.23;;;;;;;;;;5053507;28;20856;-77
2022/07/17 02:21:34;;;;;;;5.57;2.23;;;;;;;;;;5053314;28;20421;-77
2022/07/17 02:24:00;;;;;;;4.43;2.63;;;;;;;;;;5052861;28;20465;-78
2022/07/17 02:26:26;;;;;;;6.30;2.70;;;;;;;;;;5053204;28;20479;-76
2022/07/17 02:28:52;;;;;;;4.57;2.40;;;;;;;;;;5053299;28;20448;-76
2022/07/17 02:31:18;;;;;;;8.27;2.50;;;;;;;;;;5053192;28;20405;-78
2022/07/17 02:33:44;;;;;;;4.40;2.50;;;;;;;;;;5053058;28;20425;-77
2022/07/17 02:36:10;;;;;;;5.40;1.90;;;;;;;;;;5053223;28;20385;-77
2022/07/17 02:38:36;;;;;;;3.93;2.17;;;;;;;;;;5053387;28;20448;-77
2022/07/17 02:41:02;;;;;;;6.27;2.40;;;;;;;;;;5053254;28;20421;-77
2022/07/17 02:43:28;;;;;;;8.23;2.60;;;;;;;;;;5052832;28;20763;-77
2022/07/17 02:45:54;;;;;;;6.80;2.47;;;;;;;;;;5053187;28;20560;-77
2022/07/17 02:48:20;;;;;;;5.10;2.20;;;;;;;;;;5053063;28;20463;-77
2022/07/17 02:50:46;;;;;;;3.60;2.60;;;;;;;;;;5053284;28;20411;-77
2022/07/17 02:53:12;;;;;;;6.10;2.60;;;;;;;;;;5053370;28;20561;-77
2022/07/17 02:55:38;;;;;;;5.10;2.53;;;;;;;;;;5058041;28;20403;-77
2022/07/17 02:58:04;;;;;;;4.93;2.43;;;;;;;;;;5053470;28;20416;-76
2022/07/17 03:00:30;;;;;;;3.73;2.60;;;;;;;;;;5053072;28;20406;-77
2022/07/17 03:02:57;;;;;;;5.03;2.27;;;;;;;;;;5052545;28;20492;-76
2022/07/17 03:05:23;;;;;;;5.13;2.40;;;;;;;;;;5052752;28;20545;-76
2022/07/17 03:07:49;;;;;;;8.63;2.60;;;;;;;;;;5052202;28;20416;-77
2022/07/17 03:10:15;;;;;;;7.73;3.10;;;;;;;;;;5052560;28;20437;-77
2022/07/17 03:12:42;;;;;;;4.63;2.20;;;;;;;;;;5052133;28;20940;-77
2022/07/17 03:15:08;;;;;;;7.17;2.30;;;;;;;;;;5052634;28;20939;-77
2022/07/17 03:17:34;;;;;;;3.70;2.63;;;;;;;;;;5052537;28;20426;-77
2022/07/17 03:20:00;;;;;;;3.40;2.63;;;;;;;;;;5052546;28;20965;-77
2022/07/17 03:22:27;;;;;;;5.03;2.30;;;;;;;;;;5052020;28;20782;-77
2022/07/17 03:24:53;;;;;;;6.77;2.33;;;;;;;;;;5052255;28;20515;-76
2022/07/17 03:27:19;;;;;;;4.47;2.77;;;;;;;;;;5052366;28;20515;-77
2022/07/17 03:29:45;;;;;;;8.70;2.80;;;;;;;;;;5052554;28;20444;-76
2022/07/17 03:32:11;;;;;;;2.90;2.20;;;;;;;;;;5052759;28;20928;-76
2022/07/17 03:34:37;;;;;;;9.07;2.90;;;;;;;;;;5052200;28;20424;-76
2022/07/17 03:37:04;;;;;;;9.83;2.80;;;;;;;;;;5052482;28;20484;-76
2022/07/17 03:39:30;;;;;;;5.23;2.67;;;;;;;;;;5052568;28;20409;-76
2022/07/17 03:41:56;;;;;;;3.50;2.40;;;;;;;;;;5052523;28;20414;-76
2022/07/17 03:44:23;;;;;;;9.77;3.00;;;;;;;;;;5051110;28;20464;-76
2022/07/17 03:46:49;;;;;;;4.63;2.40;;;;;;;;;;5052059;28;20784;-76
2022/07/17 03:49:15;;;;;;;4.00;2.80;;;;;;;;;;5052371;28;20412;-76
2022/07/17 03:51:41;;;;;;;7.03;2.63;;;;;;;;;;5052243;28;20409;-76
2022/07/17 03:54:07;;;;;;;2.90;2.57;;;;;;;;;;5052014;28;20434;-77
2022/07/17 03:56:33;;;;;;;10.27;2.30;;;;;;;;;;5052430;28;20407;-78
2022/07/17 03:58:59;;;;;;;6.00;2.40;;;;;;;;;;5052253;28;20409;-76
2022/07/17 04:01:25;;;;;;;4.13;2.63;;;;;;;;;;5050889;28;20503;-76
2022/07/17 04:03:51;;;;;;;4.23;2.20;;;;;;;;;;5051941;28;20615;-76
2022/07/17 04:06:17;;;;;;;5.60;3.20;;;;;;;;;;5052367;28;20425;-76
2022/07/17 04:08:43;;;;;;;4.60;2.40;;;;;;;;;;5052031;28;20415;-76
2022/07/17 04:11:09;;;;;;;11.00;2.80;;;;;;;;;;5051961;28;20912;-76
2022/07/17 04:13:35;;;;;;;7.10;2.83;;;;;;;;;;5051557;28;20430;-76
2022/07/17 04:16:01;;;;;;;5.70;2.50;;;;;;;;;;5052118;28;20959;-76
2022/07/17 04:18:28;;;;;;;3.97;2.67;;;;;;;;;;5052113;28;20842;-76
2022/07/17 04:20:56;;;;;;;5.03;2.77;;;;;;;;;;5053646;28;20916;-76
2022/07/17 04:23:22;;;;;;;4.10;2.90;;;;;;;;;;5053985;28;20464;-76
2022/07/17 04:25:48;;;;;;;4.67;2.70;;;;;;;;;;5055381;28;20464;-76
2022/07/17 04:28:14;;;;;;;5.10;2.40;;;;;;;;;;5055431;28;20391;-76
2022/07/17 04:30:40;;;;;;;9.67;2.83;;;;;;;;;;5055420;28;20431;-77
2022/07/17 04:33:06;;;;;;;6.93;3.00;;;;;;;;;;5054916;28;20399;-77
2022/07/17 04:35:32;;;;;;;9.10;3.20;;;;;;;;;;5055239;28;20971;-76
2022/07/17 04:37:58;;;;;;;4.77;2.50;;;;;;;;;;5055318;28;20447;-76
2022/07/17 04:40:26;;;;;;;11.63;2.80;;;;;;;;;;5055290;28;20454;-76
2022/07/17 04:42:52;;;;;;;9.10;2.90;;;;;;;;;;5054398;28;20931;-76
2022/07/17 04:45:19;;;;;;;5.03;3.47;;;;;;;;;;5053513;28;20859;-77
2022/07/17 04:47:45;;;;;;;4.83;2.60;;;;;;;;;;5055320;28;20404;-77
2022/07/17 04:50:11;;;;;;;6.13;3.30;;;;;;;;;;5054963;28;20409;-76
2022/07/17 04:52:37;;;;;;;7.90;2.37;;;;;;;;;;5054723;28;20560;-76
2022/07/17 04:55:03;;;;;;;4.47;3.20;;;;;;;;;;5055168;28;20852;-76
2022/07/17 04:57:29;;;;;;;4.87;3.20;;;;;;;;;;5055027;28;20409;-76
2022/07/17 04:59:55;;;;;;;4.77;2.80;;;;;;;;;;5057142;28;20502;-77
2022/07/17 05:02:22;;;;;;;4.37;2.90;;;;;;;;;;5062544;28;20447;-76
2022/07/17 05:04:48;;;;;;;10.10;3.40;;;;;;;;;;5058563;28;20459;-76
2022/07/17 05:07:14;;;;;;;6.70;2.50;;;;;;;;;;5055237;28;20452;-77
2022/07/17 05:09:40;;;;;;;8.40;3.60;;;;;;;;;;5054600;28;20425;-76
2022/07/17 05:12:06;;;;;;;6.53;2.80;;;;;;;;;;5054778;28;20412;-76
2022/07/17 05:14:32;;;;;;;7.33;2.47;;;;;;;;;;5054544;28;20756;-76
2022/07/17 05:16:59;;;;;;;14.40;3.47;;;;;;;;;;5054779;28;20429;-77
2022/07/17 05:19:24;;;;;;;7.97;3.27;;;;;;;;;;5054697;28;20427;-76
2022/07/17 05:21:51;;;;;;;6.47;2.60;;;;;;;;;;5054491;28;20917;-76
2022/07/17 05:24:17;;;;;;;6.03;3.70;;;;;;;;;;5054095;28;20574;-76
2022/07/17 05:26:43;;;;;;;9.20;3.70;;;;;;;;;;5054499;28;20826;-76
2022/07/17 05:29:09;;;;;;;8.80;3.37;;;;;;;;;;5054201;28;20404;-76
2022/07/17 05:31:35;;;;;;;5.13;2.50;;;;;;;;;;5053690;28;20440;-78
2022/07/17 05:34:01;;;;;;;5.80;2.80;;;;;;;;;;5053712;28;20472;-76
2022/07/17 05:36:27;;;;;;;8.73;3.60;;;;;;;;;;5054536;28;20432;-76
2022/07/17 05:38:53;;;;;;;5.40;3.23;;;;;;;;;;5054089;28;20415;-77
2022/07/17 05:41:19;;;;;;;4.60;2.80;;;;;;;;;;5054121;28;20817;-76
2022/07/17 05:43:45;;;;;;;4.40;2.60;;;;;;;;;;5053375;28;20868;-77
2022/07/17 05:46:11;;;;;;;8.23;3.20;;;;;;;;;;5053931;28;20404;-76
2022/07/17 05:48:37;;;;;;;6.53;3.60;;;;;;;;;;5053944;28;20497;-76
2022/07/17 05:51:03;;;;;;;5.90;3.17;;;;;;;;;;5054027;28;20405;-76
2022/07/17 05:53:29;;;;;;;6.43;3.60;;;;;;;;;;5053595;28;20468;-79
2022/07/17 05:55:55;;;;;;;6.70;2.73;;;;;;;;;;5053831;28;20432;-76
2022/07/17 05:58:21;;;;;;;11.70;3.30;;;;;;;;;;5053740;28;20881;-76
2022/07/17 06:00:48;;;;;;;5.87;3.00;;;;;;;;;;5053921;28;20535;-77
2022/07/17 06:03:15;;;;;;;5.80;2.97;;;;;;;;;;5053522;28;20399;-77
2022/07/17 06:05:41;;;;;;;7.83;3.50;;;;;;;;;;5053973;28;20450;-77
2022/07/17 06:08:07;;;;;;;6.87;3.20;;;;;;;;;;5057301;28;20408;-76
2022/07/17 06:10:33;;;;;;;8.07;2.83;;;;;;;;;;5053550;28;20403;-76
2022/07/17 06:12:59;;;;;;;5.27;2.93;;;;;;;;;;5053308;28;20581;-76
2022/07/17 06:15:25;;;;;;;6.00;3.37;;;;;;;;;;5053566;28;20431;-77
2022/07/17 06:17:51;;;;;;;5.73;3.20;;;;;;;;;;5052120;28;20396;-76
2022/07/17 06:20:17;;;;;;;9.20;2.60;;;;;;;;;;5053440;28;20938;-76
2022/07/17 06:22:44;;;;;;;9.20;2.90;;;;;;;;;;5052919;28;20461;-76
2022/07/17 06:25:10;;;;;;;9.73;3.57;;;;;;;;;;5053305;28;20434;-77
2022/07/17 06:27:39;;;;;;;4.80;2.70;;;;;;;;;;5053242;28;20390;-77
2022/07/17 06:30:05;;;;;;;6.17;3.20;;;;;;;;;;5053008;28;20413;-77
2022/07/17 06:32:31;;;;;;;4.80;2.90;;;;;;;;;;5052710;28;20466;-76
2022/07/17 06:34:57;;;;;;;6.00;2.70;;;;;;;;;;5053142;28;20911;-77
2022/07/17 06:37:23;;;;;;;5.20;2.30;;;;;;;;;;5052972;28;20413;-76
2022/07/17 06:39:49;;;;;;;5.93;2.93;;;;;;;;;;5052980;28;20750;-76
2022/07/17 06:42:15;;;;;;;3.03;2.70;;;;;;;;;;5051968;28;20389;-76
2022/07/17 06:44:41;;;;;;;4.90;2.93;;;;;;;;;;5053016;28;20442;-77
2022/07/17 06:47:07;;;;;;;4.70;2.40;;;;;;;;;;5053087;28;20413;-76
2022/07/17 06:49:33;;;;;;;8.90;3.33;;;;;;;;;;5053015;28;20497;-77
2022/07/17 06:51:59;;;;;;;6.93;2.97;;;;;;;;;;5052878;28;20483;-77
2022/07/17 06:54:26;;;;;;;7.70;4.27;;;;;;;;;;5052340;28;20486;-76
2022/07/17 06:56:52;;;;;;;6.93;2.77;;;;;;;;;;5052791;28;20401;-77
2022/07/17 06:59:18;;;;;;;7.97;3.77;;;;;;;;;;5052744;28;20762;-76
2022/07/17 07:01:45;;;;;;;10.67;4.70;;;;;;;;;;5052817;28;20418;-77
2022/07/17 07:04:11;;;;;;;8.07;4.00;;;;;;;;;;5052158;28;20488;-77
2022/07/17 07:06:37;;;;;;;6.50;3.97;;;;;;;;;;5052639;28;20439;-77
2022/07/17 07:09:03;;;;;;;10.00;3.73;;;;;;;;;;5052827;28;20407;-76
2022/07/17 07:11:29;;;;;;;6.30;3.60;;;;;;;;;;5052921;28;20481;-76
2022/07/17 07:13:55;;;;;;;7.17;3.53;;;;;;;;;;5052336;28;20474;-77
2022/07/17 07:16:21;;;;;;;7.93;3.80;;;;;;;;;;5052696;28;20962;-77
2022/07/17 07:18:47;;;;;;;6.27;3.23;;;;;;;;;;5052698;28;20417;-77
2022/07/17 07:21:13;;;;;;;5.23;2.57;;;;;;;;;;5052624;28;20408;-77
2022/07/17 07:23:40;;;;;;;8.90;3.40;;;;;;;;;;5052243;28;20411;-76
2022/07/17 07:26:06;;;;;;;8.27;2.83;;;;;;;;;;5052767;28;20431;-76
2022/07/17 07:28:34;;;;;;;7.03;3.10;;;;;;;;;;5052338;28;20898;-77
2022/07/17 07:31:00;;;;;;;5.83;2.50;;;;;;;;;;5052621;28;20409;-76
2022/07/17 07:33:26;;;;;;;5.60;2.63;;;;;;;;;;5052213;28;20425;-77
2022/07/17 07:35:52;;;;;;;4.13;2.20;;;;;;;;;;5051298;28;20783;-76
2022/07/17 07:38:18;;;;;;;3.97;2.40;;;;;;;;;;5052618;28;20466;-77
2022/07/17 07:40:44;;;;;;;3.37;2.50;;;;;;;;;;5052271;28;20478;-77
2022/07/17 07:43:10;;;;;;;6.07;2.97;;;;;;;;;;5051937;28;20485;-77
2022/07/17 07:45:36;;;;;;;7.23;2.80;;;;;;;;;;5052191;28;20442;-77
2022/07/17 07:48:02;;;;;;;5.00;2.17;;;;;;;;;;5052397;28;20933;-77
2022/07/17 07:50:28;;;;;;;6.30;2.37;;;;;;;;;;5052132;28;20412;-77
2022/07/17 07:52:54;;;;;;;8.27;2.73;;;;;;;;;;5051813;28;20494;-76
2022/07/17 07:55:21;;;;;;;7.10;2.40;;;;;;;;;;5055772;28;20452;-76
2022/07/17 07:57:47;;;;;;;5.00;1.90;;;;;;;;;;5055837;28;20422;-76
2022/07/17 08:00:13;;;;;;;2.37;1.90;;;;;;;;;;5056102;28;20424;-75
2022/07/17 08:02:39;;;;;;;3.47;2.30;;;;;;;;;;5055640;28;20386;-76
2022/07/17 08:05:06;;;;;;;5.80;2.73;;;;;;;;;;5055663;28;20971;-76
2022/07/17 08:07:31;;;;;;;4.00;2.17;;;;;;;;;;5056029;28;20416;-76
2022/07/17 08:09:58;;;;;;;4.80;1.73;;;;;;;;;;5055810;28;20440;-76
2022/07/17 08:12:24;;;;;;;9.40;1.90;;;;;;;;;;5055400;28;20440;-77
2022/07/17 08:14:50;;;;;;;4.13;1.90;;;;;;;;;;5054784;28;20994;-77
2022/07/17 08:17:19;;;;;;;8.37;2.23;;;;;;;;;;5055849;28;20420;-76
2022/07/17 08:19:45;;;;;;;6.60;1.90;;;;;;;;;;5054578;28;20841;-76
2022/07/17 08:22:12;;;;;;;4.33;2.20;;;;;;;;;;5055733;28;20412;-76
2022/07/17 08:24:38;;;;;;;6.60;2.23;;;;;;;;;;5053741;28;20472;-76
2022/07/17 08:27:04;;;;;;;4.60;2.23;;;;;;;;;;5054103;28;20893;-76
2022/07/17 08:29:30;;;;;;;4.73;1.80;;;;;;;;;;5055619;28;20417;-76
2022/07/17 08:31:56;;;;;;;2.93;1.40;;;;;;;;;;5055628;28;20416;-77
2022/07/17 08:34:22;;;;;;;7.33;1.70;;;;;;;;;;5055118;28;20454;-76
2022/07/17 08:36:48;;;;;;;2.67;1.90;;;;;;;;;;5055838;28;20416;-76
2022/07/17 08:39:14;;;;;;;2.70;1.67;;;;;;;;;;5055536;28;20901;-75
2022/07/17 08:41:41;;;;;;;3.00;1.80;;;;;;;;;;5055307;28;20523;-75
2022/07/17 08:44:07;;;;;;;6.67;1.80;;;;;;;;;;5054845;28;20531;-76
2022/07/17 08:46:35;;;;;;;3.00;1.30;;;;;;;;;;5055137;28;20401;-75
2022/07/17 08:49:02;;;;;;;3.70;1.80;;;;;;;;;;5055258;28;20459;-76
2022/07/17 08:51:28;;;;;;;6.23;1.70;;;;;;;;;;5055422;28;20408;-75
2022/07/17 08:53:54;;;;;;;2.60;1.90;;;;;;;;;;5054670;28;20504;-76
2022/07/17 08:56:21;;;;;;;2.60;1.30;;;;;;;;;;5055257;28;20767;-77
2022/07/17 08:58:47;;;;;;;7.33;1.50;;;;;;;;;;5053784;28;20415;-76
2022/07/17 09:01:14;;;;;;;5.60;1.50;;;;;;;;;;5054902;28;20417;-77
2022/07/17 09:03:41;;;;;;;5.80;1.60;;;;;;;;;;5053153;28;20959;-76
2022/07/17 09:06:17;;;;;;;4.60;1.73;;;;;;;;;;5054037;28;20464;-77
2022/07/17 09:08:43;;;;;;;3.37;1.87;;;;;;;;;;5055140;28;20429;-77
2022/07/17 09:11:10;;;;;;;4.23;1.90;;;;;;;;;;5055271;28;20427;-77
2022/07/17 09:13:36;;;;;;;2.80;1.30;;;;;;;;;;5056059;28;20436;-77
2022/07/17 09:16:10;;;;;;;5.20;1.70;;;;;;;;;;5057214;28;20432;-77
2022/07/17 09:18:45;;;;;;;3.00;1.40;;;;;;;;;;5054752;28;20419;-76
2022/07/17 09:21:17;;;;;;;3.73;1.57;;;;;;;;;;5054516;28;20697;-76
2022/07/17 09:23:43;;;;;;;2.83;1.60;;;;;;;;;;5054175;28;20479;-76
2022/07/17 09:26:09;;;;;;;2.27;1.67;;;;;;;;;;5054426;28;20468;-76
2022/07/17 09:28:45;;;;;;;2.40;1.60;;;;;;;;;;5054266;28;20416;-76
2022/07/17 09:31:11;;;;;;;3.30;1.30;;;;;;;;;;5054556;28;20400;-76
2022/07/17 09:33:37;;;;;;;3.90;1.50;;;;;;;;;;5053845;28;20439;-76
2022/07/17 09:36:13;;;;;;;3.23;1.73;;;;;;;;;;5054202;28;20909;-76
2022/07/17 09:38:41;;;;;;;5.33;2.10;;;;;;;;;;5054461;28;20413;-76
2022/07/17 09:41:09;;;;;;;2.40;1.47;;;;;;;;;;5054130;28;20455;-76
2022/07/17 09:43:42;;;;;;;7.83;2.20;;;;;;;;;;5053782;28;20798;-76
2022/07/17 09:46:08;;;;;;;4.67;2.00;;;;;;;;;;5054301;28;20472;-76
2022/07/17 09:48:35;;;;;;;4.93;1.53;;;;;;;;;;5054341;28;20504;-76
2022/07/17 09:51:03;;;;;;;3.50;1.90;;;;;;;;;;5054228;28;20405;-76
2022/07/17 09:53:29;;;;;;;4.20;1.70;;;;;;;;;;5053340;28;20482;-76
2022/07/17 09:55:57;;;;;;;5.63;1.90;;;;;;;;;;5054247;28;20405;-76
2022/07/17 09:58:24;;;;;;;2.83;1.70;;;;;;;;;;5053808;28;20405;-76
2022/07/17 10:00:51;;;;;;;5.90;2.03;;;;;;;;;;5054005;28;20401;-76
2022/07/17 10:03:18;;;;;;;4.93;1.83;;;;;;;;;;5053737;28;20865;-74
2022/07/17 10:05:45;;;;;;;6.83;2.03;;;;;;;;;;5053728;28;20463;-75
2022/07/17 10:08:11;;;;;;;5.30;2.30;;;;;;;;;;5053682;28;20819;-75
2022/07/17 10:10:37;;;;;;;6.20;2.50;;;;;;;;;;5053857;28;20413;-75
2022/07/17 10:13:03;;;;;;;4.40;2.23;;;;;;;;;;5051894;28;20433;-74
2022/07/17 10:15:29;;;;;;;5.70;2.20;;;;;;;;;;5053697;28;20416;-75
2022/07/17 10:18:08;;;;;;;3.13;1.70;;;;;;;;;;5053408;28;20522;-75
2022/07/17 10:20:34;;;;;;;5.13;2.53;;;;;;;;;;5053465;28;20461;-75
2022/07/17 10:23:00;;;;;;;5.30;2.17;;;;;;;;;;5053256;28;20436;-75
2022/07/17 10:25:26;;;;;;;5.73;1.77;;;;;;;;;;5053308;28;20554;-75
2022/07/17 10:27:53;;;;;;;6.90;2.17;;;;;;;;;;5053306;28;20872;-75
2022/07/17 10:30:21;;;;;;;5.63;1.73;;;;;;;;;;5053251;28;20923;-75
2022/07/17 10:33:13;;;;;;;4.50;1.67;;;;;;;;;;5052850;28;20740;-75
2022/07/17 10:35:44;;;;;;;7.27;2.30;;;;;;;;;;5051310;28;20425;-75
2022/07/17 10:38:14;;;;;;;7.17;2.00;;;;;;;;;;5052982;28;20405;-76
2022/07/17 10:40:41;;;;;;;5.83;2.30;;;;;;;;;;5053221;28;20416;-75
2022/07/17 10:43:08;;;;;;;4.20;2.50;;;;;;;;;;5052597;28;20471;-75
2022/07/17 10:45:35;;;;;;;3.40;2.20;;;;;;;;;;5052962;28;20496;-75
2022/07/17 10:48:04;;;;;;;6.47;2.63;;;;;;;;;;5052864;28;20505;-75
2022/07/17 10:50:50;;;;;;;6.33;2.30;;;;;;;;;;5053019;28;20459;-75
2022/07/17 10:53:21;;;;;;;6.00;2.40;;;;;;;;;;5052613;28;20486;-75
2022/07/17 10:55:48;;;;;;;5.23;2.30;;;;;;;;;;5053275;28;20413;-75
2022/07/17 10:58:23;;;;;;;9.37;2.47;;;;;;;;;;5052849;28;20452;-75
2022/07/17 11:01:15;;;;;;;4.10;2.33;;;;;;;;;;5053042;28;20491;-75
2022/07/17 11:03:50;;;;;;;4.53;2.00;;;;;;;;;;5050677;28;20440;-75
2022/07/17 11:06:20;;;;;;;7.93;2.60;;;;;;;;;;5052778;28;20456;-76
2022/07/17 11:08:55;;;;;;;5.50;2.60;;;;;;;;;;5052772;28;20790;-75
2022/07/17 11:11:22;;;;;;;6.90;2.17;;;;;;;;;;5052843;28;20415;-75
2022/07/17 11:13:48;;;;;;;5.40;2.33;;;;;;;;;;5052603;28;20819;-75
2022/07/17 11:16:28;;;;;;;6.67;2.60;;;;;;;;;;5052758;28;20415;-75
2022/07/17 11:18:55;;;;;;;6.23;2.40;;;;;;;;;;5051657;28;20502;-75
2022/07/17 11:21:21;;;;;;;5.80;2.50;;;;;;;;;;5052923;28;20412;-75
2022/07/17 11:23:55;;;;;;;8.23;2.27;;;;;;;;;;5052315;28;20527;-75
2022/07/17 11:26:21;;;;;;;5.90;2.70;;;;;;;;;;5052791;28;20416;-75
2022/07/17 11:28:47;;;;;;;7.97;2.57;;;;;;;;;;5054103;28;20458;-75
2022/07/17 11:31:18;;;;;;;3.53;1.80;;;;;;;;;;5057323;28;20410;-75
2022/07/17 11:33:54;;;;;;;4.33;2.57;;;;;;;;;;5056462;28;20441;-75
2022/07/17 11:36:25;;;;;;;5.83;2.40;;;;;;;;;;5056715;28;20401;-75
2022/07/17 11:38:51;;;;;;;8.20;3.60;;;;;;;;;;5056695;28;20413;-75
2022/07/17 11:41:18;;;;;;;5.97;2.10;;;;;;;;;;5051484;28;20467;-74
2022/07/17 11:43:44;;;;;;;8.50;2.23;;;;;;;;;;5053770;28;20464;-75
2022/07/17 11:46:10;;;;;;;7.03;2.37;;;;;;;;;;5054716;28;20460;-76
2022/07/17 11:48:36;;;;;;;5.60;2.50;;;;;;;;;;5054470;28;20794;-74
2022/07/17 11:51:02;;;;;;;5.60;2.60;;;;;;;;;;5054610;28;20425;-75
2022/07/17 11:53:32;;;;;;;7.53;2.40;;;;;;;;;;5053508;28;20456;-74
2022/07/17 11:55:59;;;;;;;6.37;2.30;;;;;;;;;;5054685;28;20786;-74
2022/07/17 11:58:25;;;;;;;7.63;2.33;;;;;;;;;;5055453;28;20420;-74
2022/07/17 12:01:00;;;;;;;10.70;2.90;;;;;;;;;;5054786;28;20908;-75
2022/07/17 12:03:26;;;;;;;6.30;2.70;;;;;;;;;;5054054;28;20863;-74
2022/07/17 12:05:52;;;;;;;7.30;2.73;;;;;;;;;;5052783;28;20472;-75
2022/07/17 12:08:22;;;;;;;5.17;3.10;;;;;;;;;;5054870;28;20482;-77
2022/07/17 12:10:48;;;;;;;9.70;3.33;;;;;;;;;;5052785;28;20432;-76
2022/07/17 12:13:14;;;;;;;6.70;2.40;;;;;;;;;;5054821;28;20467;-76
2022/07/17 12:15:50;;;;;;;6.17;2.60;;;;;;;;;;5054358;28;20904;-75
2022/07/17 12:18:27;;;;;;;9.57;3.23;;;;;;;;;;5052883;28;20431;-74
2022/07/17 12:20:55;;;;;;;5.23;2.80;;;;;;;;;;5054271;28;20499;-74
2022/07/17 12:23:27;;;;;;;4.37;2.47;;;;;;;;;;5054551;28;20431;-74
2022/07/17 12:26:03;;;;;;;5.53;2.50;;;;;;;;;;5053945;28;20547;-74
2022/07/17 12:28:30;;;;;;;6.00;2.50;;;;;;;;;;5054667;28;20416;-74
2022/07/17 12:30:56;;;;;;;7.70;2.43;;;;;;;;;;5053975;28;20435;-75
2022/07/17 12:33:22;;;;;;;4.33;2.23;;;;;;;;;;5053609;28;20893;-74
2022/07/17 12:35:47;;;;;;;7.53;2.40;;;;;;;;;;5054069;28;20439;-75
2022/07/17 12:38:13;;;;;;;7.40;2.80;;;;;;;;;;5054160;28;20515;-74
2022/07/17 12:40:40;;;;;;;7.70;2.70;;;;;;;;;;5050975;28;20945;-74
2022/07/17 12:43:06;;;;;;;4.70;2.30;;;;;;;;;;5051929;28;20452;-74
2022/07/17 12:45:32;;;;;;;5.00;2.70;;;;;;;;;;5053538;28;20583;-74
2022/07/17 12:47:58;;;;;;;5.47;2.30;;;;;;;;;;5052477;28;20435;-76
2022/07/17 12:50:24;;;;;;;6.77;2.70;;;;;;;;;;5035857;28;20436;-75
2022/07/17 12:52:50;;;;;;;6.77;2.57;;;;;;;;;;5052236;28;20448;-76
2022/07/17 12:55:16;;;;;;;5.03;2.13;;;;;;;;;;5052936;28;20913;-76
2022/07/17 12:57:43;;;;;;;5.33;2.27;;;;;;;;;;5053979;28;20420;-76
2022/07/17 13:00:09;;;;;;;5.63;2.60;;;;;;;;;;5053442;28;20435;-75
2022/07/17 13:02:35;;;;;;;4.07;2.20;;;;;;;;;;5051770;28;20432;-75
2022/07/17 13:05:01;;;;;;;6.03;2.03;;;;;;;;;;5053104;28;20466;-74
2022/07/17 13:07:27;;;;;;;7.13;2.60;;;;;;;;;;5053891;28;20420;-75
2022/07/17 13:09:55;;;;;;;5.70;2.47;;;;;;;;;;5051850;28;20435;-74
2022/07/17 13:12:21;;;;;;;5.83;2.30;;;;;;;;;;5053088;28;20838;-75
2022/07/17 13:14:47;;;;;;;8.13;2.73;;;;;;;;;;5052910;28;20436;-74
2022/07/17 13:17:13;;;;;;;9.13;2.43;;;;;;;;;;5051402;28;20505;-74
2022/07/17 13:19:39;;;;;;;4.10;2.07;;;;;;;;;;5052168;28;20432;-77
2022/07/17 13:22:05;;;;;;;6.30;2.20;;;;;;;;;;5053343;28;20420;-75
2022/07/17 13:24:32;;;;;;;4.40;2.20;;;;;;;;;;5051166;28;20513;-75
2022/07/17 13:26:58;;;;;;;5.23;2.40;;;;;;;;;;5053165;28;20417;-77
2022/07/17 13:29:26;;;;;;;5.30;2.50;;;;;;;;;;5051903;28;20921;-75
2022/07/17 13:31:52;;;;;;;3.43;2.23;;;;;;;;;;5052199;28;20447;-74
2022/07/17 13:34:18;;;;;;;5.10;2.03;;;;;;;;;;5052829;28;20444;-75
2022/07/17 13:36:44;;;;;;;4.40;2.27;;;;;;;;;;5052794;28;20944;-75
2022/07/17 13:39:10;;;;;;;3.20;2.00;;;;;;;;;;5052244;28;20849;-74
2022/07/17 13:41:40;;;;;;;3.20;1.87;;;;;;;;;;5052437;28;20515;-74
2022/07/17 13:44:06;;;;;;;2.87;1.73;;;;;;;;;;5051817;28;20868;-73
2022/07/17 13:46:32;;;;;;;4.50;1.70;;;;;;;;;;5048489;28;20804;-75
2022/07/17 13:48:58;;;;;;;5.70;2.30;;;;;;;;;;5052932;28;20948;-74
2022/07/17 13:51:26;;;;;;;3.13;1.87;;;;;;;;;;5052017;28;20425;-75
2022/07/17 13:53:52;;;;;;;5.13;1.83;;;;;;;;;;5052252;28;20436;-76
2022/07/17 13:56:18;;;;;;;5.00;1.97;;;;;;;;;;5052109;28;20504;-76
2022/07/17 13:58:44;;;;;;;5.50;1.90;;;;;;;;;;5052874;28;20442;-76
2022/07/17 14:01:12;;;;;;;4.23;2.17;;;;;;;;;;5052153;28;20432;-75
2022/07/17 14:03:38;;;;;;;5.70;2.20;;;;;;;;;;5051576;28;20451;-77
2022/07/17 14:06:04;;;;;;;2.10;1.67;;;;;;;;;;5050864;28;20472;-76
2022/07/17 14:08:30;;;;;;;4.03;1.80;;;;;;;;;;5052622;28;20429;-75
2022/07/17 14:10:56;;;;;;;6.13;1.70;;;;;;;;;;5051812;28;20759;-77
2022/07/17 14:13:22;;;;;;;3.83;2.27;;;;;;;;;;5051975;28;20433;-76
2022/07/17 14:15:48;;;;;;;4.43;1.80;;;;;;;;;;5052043;28;20428;-76
2022/07/17 14:18:14;;;;;;;2.80;1.63;;;;;;;;;;5050599;28;20432;-76
2022/07/17 14:20:40;;;;;;;2.50;1.40;;;;;;;;;;5051842;28;20519;-76
2022/07/17 14:23:06;;;;;;;6.50;2.17;;;;;;;;;;5051862;28;20444;-76
2022/07/17 14:25:32;;;;;;;3.70;1.67;;;;;;;;;;5051159;28;20468;-77
2022/07/17 14:27:58;;;;;;;2.70;1.70;;;;;;;;;;5050957;28;20428;-76
2022/07/17 14:30:25;;;;;;;1.93;1.60;;;;;;;;;;5051787;28;20973;-75
2022/07/17 14:32:51;;;;;;;3.00;2.10;;;;;;;;;;5050674;28;20432;-76
2022/07/17 14:35:17;;;;;;;2.80;1.50;;;;;;;;;;5051980;28;20420;-75
2022/07/17 14:37:43;;;;;;;2.10;1.60;;;;;;;;;;5051482;28;20815;-74
2022/07/17 14:40:10;;;;;;;3.33;1.57;;;;;;;;;;5051209;28;20515;-74
2022/07/17 14:42:36;;;;;;;2.13;1.50;;;;;;;;;;5051214;28;20439;-74